createdAt,value
2023-09-12T00:00:00.826Z,100122.72
2023-09-12T00:02:36.087Z,100124.67
2023-09-12T00:05:08.689Z,100123.89
2023-09-12T00:07:42.143Z,100124.91
2023-09-12T00:10:14.322Z,100122.36
2023-09-12T00:12:48.139Z,100122.51
2023-09-12T00:15:21.095Z,100129.66
2023-09-12T00:17:53.840Z,100131.61
2023-09-12T00:20:26.336Z,100123.80
2023-09-12T00:22:58.706Z,100136.09
2023-09-12T00:25:31.043Z,100135.22
2023-09-12T00:28:03.272Z,100135.22
2023-09-12T00:30:35.680Z,100136.77
2023-09-12T00:33:07.958Z,100144.50
2023-09-12T00:35:42.154Z,100142.66
2023-09-12T00:38:14.790Z,100145.29
2023-09-12T00:40:47.052Z,100151.56
2023-09-12T00:43:19.946Z,100147.48
2023-09-12T00:45:52.597Z,100146.77
2023-09-12T00:48:26.121Z,100150.34
2023-09-12T00:50:59.436Z,100157.55
2023-09-12T00:53:31.654Z,100151.58
2023-09-12T00:56:04.681Z,100159.47
2023-09-12T00:58:36.841Z,100160.25
2023-09-12T01:01:09.887Z,100162.89
2023-09-12T01:03:42.539Z,100156.91
2023-09-12T01:06:16.959Z,100161.42
2023-09-12T01:08:49.737Z,100159.73
2023-09-12T01:11:23.144Z,100173.03
2023-09-12T01:13:55.321Z,100165.22
2023-09-12T01:16:27.766Z,100171.41
2023-09-12T01:19:00.011Z,100167.92
2023-09-12T01:22:06.491Z,100160.21
2023-09-12T01:24:50.366Z,100168.00
2023-09-12T01:27:30.645Z,100168.78
2023-09-12T01:30:05.917Z,100167.09
2023-09-12T01:32:39.861Z,100171.64
2023-09-12T01:35:12.385Z,100169.16
2023-09-12T01:37:44.566Z,100171.94
2023-09-12T01:40:18.281Z,100180.76
2023-09-12T01:42:52.702Z,100173.88
2023-09-12T01:45:25.404Z,100176.58
2023-09-12T01:47:58.717Z,100178.42
2023-09-12T01:50:32.933Z,100174.25
2023-09-12T01:53:05.183Z,100177.89
2023-09-12T01:55:38.231Z,100188.47
2023-09-12T01:58:10.995Z,100181.38
2023-09-12T02:00:43.646Z,100173.70
2023-09-12T02:03:16.204Z,100183.55
2023-09-12T02:05:49.011Z,100182.75
2023-09-12T02:08:21.278Z,100181.81
2023-09-12T02:10:53.635Z,100177.34
2023-09-12T02:13:26.488Z,100173.78
2023-09-12T02:16:04.536Z,100181.67
2023-09-12T02:18:37.097Z,100192.19
2023-09-12T02:21:09.471Z,100183.36
2023-09-12T02:23:42.049Z,100192.19
2023-09-12T02:26:14.292Z,100188.94
2023-09-12T02:28:48.089Z,100193.27
2023-09-12T02:31:20.331Z,100196.07
2023-09-12T02:33:52.737Z,100203.17
2023-09-12T02:36:25.123Z,100192.66
2023-09-12T02:38:57.597Z,100198.77
2023-09-12T02:41:30.001Z,100203.17
2023-09-12T02:44:02.419Z,100206.59
2023-09-12T02:46:35.104Z,100213.69
2023-09-12T02:49:07.387Z,100214.62
2023-09-12T02:51:43.320Z,100211.98
2023-09-12T02:54:15.869Z,100213.83
2023-09-12T02:56:48.428Z,100217.39
2023-09-12T02:59:20.946Z,100203.31
2023-09-12T03:01:53.246Z,100211.20
2023-09-12T03:04:29.876Z,100213.00
2023-09-12T03:07:02.581Z,100216.38
2023-09-12T03:09:35.235Z,100224.20
2023-09-12T03:12:08.659Z,100221.57
2023-09-12T03:14:42.525Z,100214.47
2023-09-12T03:17:15.402Z,100215.16
2023-09-12T03:19:48.241Z,100209.77
2023-09-12T03:22:20.744Z,100215.70
2023-09-12T03:24:53.041Z,100211.61
2023-09-12T03:27:25.463Z,100210.01
2023-09-12T03:29:58.388Z,100217.13
2023-09-12T03:32:32.688Z,100221.16
2023-09-12T03:35:04.967Z,100221.76
2023-09-12T03:37:38.982Z,100212.77
2023-09-12T03:40:15.302Z,100223.05
2023-09-12T03:42:49.030Z,100225.45
2023-09-12T03:45:22.848Z,100225.14
2023-09-12T03:47:55.953Z,100224.05
2023-09-12T03:50:29.739Z,100225.48
2023-09-12T03:53:05.158Z,100221.83
2023-09-12T03:55:38.064Z,100227.73
2023-09-12T03:58:10.560Z,100223.06
2023-09-12T04:00:43.423Z,100232.34
2023-09-12T04:03:17.692Z,100232.86
2023-09-12T04:05:50.383Z,100227.25
2023-09-12T04:08:23.127Z,100227.61
2023-09-12T04:10:55.422Z,100227.09
2023-09-12T04:13:30.078Z,100227.52
2023-09-12T04:16:02.409Z,100223.55
2023-09-12T04:18:35.808Z,100229.31
2023-09-12T04:21:08.784Z,100236.73
2023-09-12T04:23:42.269Z,100238.10
2023-09-12T04:26:15.068Z,100246.44
2023-09-12T04:28:49.609Z,100234.50
2023-09-12T04:31:22.277Z,100238.41
2023-09-12T04:33:55.506Z,100240.51
2023-09-12T04:36:28.939Z,100237.33
2023-09-12T04:39:02.074Z,100237.73
2023-09-12T04:41:35.281Z,100240.78
2023-09-12T04:44:08.374Z,100243.90
2023-09-12T04:46:44.384Z,100231.27
2023-09-12T04:49:16.418Z,100242.71
2023-09-12T04:51:49.741Z,100243.02
2023-09-12T04:54:22.269Z,100244.17
2023-09-12T04:56:56.375Z,100247.14
2023-09-12T04:59:29.084Z,100242.03
2023-09-12T05:02:02.769Z,100247.52
2023-09-12T05:04:35.290Z,100225.80
2023-09-12T05:07:08.246Z,100226.13
2023-09-12T05:09:41.394Z,100226.13
2023-09-12T05:12:15.347Z,100235.22
2023-09-12T05:14:47.999Z,100244.24
2023-09-12T05:17:20.781Z,100244.69
2023-09-12T05:19:53.405Z,100248.87
2023-09-12T05:22:26.613Z,100250.36
2023-09-12T05:24:59.706Z,100257.92
2023-09-12T05:27:33.259Z,100257.73
2023-09-12T05:30:05.954Z,100257.03
2023-09-12T05:32:40.765Z,100265.59
2023-09-12T05:35:21.456Z,100258.95
2023-09-12T05:37:48.054Z,100262.03
2023-09-12T05:40:20.973Z,100265.78
2023-09-12T05:42:54.827Z,100257.73
2023-09-12T05:45:27.803Z,100263.72
2023-09-12T05:48:01.036Z,100258.19
2023-09-12T05:50:35.038Z,100257.40
2023-09-12T05:53:10.215Z,100256.04
2023-09-12T05:55:43.436Z,100251.64
2023-09-12T05:58:17.050Z,100265.05
2023-09-12T06:00:50.177Z,100261.16
2023-09-12T06:03:24.073Z,100256.16
2023-09-12T06:05:56.710Z,100262.36
2023-09-12T06:08:29.770Z,100257.78
2023-09-12T06:11:02.257Z,100261.33
2023-09-12T06:13:36.912Z,100258.47
2023-09-12T06:16:09.863Z,100266.14
2023-09-12T06:18:42.498Z,100265.16
2023-09-12T06:21:16.291Z,100262.94
2023-09-12T06:23:50.337Z,100261.53
2023-09-12T06:26:23.247Z,100261.40
2023-09-12T06:28:56.223Z,100270.25
2023-09-12T06:31:29.866Z,100271.14
2023-09-12T06:34:02.859Z,100269.56
2023-09-12T06:36:36.093Z,100267.55
2023-09-12T06:39:09.954Z,100262.36
2023-09-12T06:41:43.515Z,100260.19
2023-09-12T06:44:16.324Z,100270.92
2023-09-12T06:46:49.655Z,100264.09
2023-09-12T06:49:22.277Z,100258.20
2023-09-12T06:51:55.168Z,100253.84
2023-09-12T06:54:28.060Z,100267.33
2023-09-12T06:57:00.562Z,100271.70
2023-09-12T06:59:33.469Z,100262.44
2023-09-12T07:02:06.313Z,100260.52
2023-09-12T07:04:40.200Z,100269.16
2023-09-12T07:07:13.199Z,100272.05
2023-09-12T07:09:46.301Z,100272.05
2023-09-12T07:12:19.729Z,100274.76
2023-09-12T07:14:53.321Z,100278.10
2023-09-12T07:17:26.168Z,100277.03
2023-09-12T07:20:00.968Z,100276.36
2023-09-12T07:22:35.590Z,100283.81
2023-09-12T07:25:11.039Z,100286.20
2023-09-12T07:27:44.791Z,100277.13
2023-09-12T07:30:19.919Z,100285.98
2023-09-12T07:32:53.242Z,100281.81
2023-09-12T07:35:27.159Z,100283.22
2023-09-12T07:38:00.220Z,100285.59
2023-09-12T07:40:32.566Z,100280.42
2023-09-12T07:43:05.908Z,100275.98
2023-09-12T07:45:39.786Z,100281.55
2023-09-12T07:48:16.240Z,100281.09
2023-09-12T07:50:50.147Z,100286.53
2023-09-12T07:53:24.347Z,100271.53
2023-09-12T07:55:59.664Z,100286.93
2023-09-12T07:58:32.754Z,100284.39
2023-09-12T08:01:12.015Z,100286.47
2023-09-12T08:03:46.006Z,100281.97
2023-09-12T08:06:20.106Z,100283.65
2023-09-12T08:08:53.513Z,100289.05
2023-09-12T08:11:27.802Z,100289.47
2023-09-12T08:14:01.053Z,100281.36
2023-09-12T08:16:33.918Z,100287.27
2023-09-12T08:19:06.484Z,100289.81
2023-09-12T08:21:39.924Z,100277.20
2023-09-12T08:24:14.308Z,100287.25
2023-09-12T08:26:49.128Z,100281.30
2023-09-12T08:29:24.184Z,100271.11
2023-09-12T08:31:57.866Z,100278.98
2023-09-12T08:34:30.633Z,100279.59
2023-09-12T08:37:02.899Z,100276.83
2023-09-12T08:39:46.578Z,100269.84
2023-09-12T08:42:19.579Z,100268.74
2023-09-12T08:44:54.258Z,100274.41
2023-09-12T08:47:28.749Z,100277.53
2023-09-12T08:50:02.003Z,100266.86
2023-09-12T08:52:35.063Z,100269.53
2023-09-12T08:55:09.243Z,100267.84
2023-09-12T08:57:44.438Z,100265.06
2023-09-12T09:00:34.421Z,100273.63
2023-09-12T09:03:09.824Z,100262.97
2023-09-12T09:05:46.329Z,100261.28
2023-09-12T09:08:21.898Z,100256.69
2023-09-12T09:10:59.712Z,100255.95
2023-09-12T09:13:32.868Z,100257.92
2023-09-12T09:16:16.026Z,100252.70
2023-09-12T09:19:00.658Z,100251.48
2023-09-12T09:21:34.864Z,100256.56
2023-09-12T09:24:12.608Z,100263.59
2023-09-12T09:26:49.272Z,100249.34
2023-09-12T09:29:23.333Z,100253.81
2023-09-12T09:31:56.426Z,100244.00
2023-09-12T09:34:30.924Z,100247.66
2023-09-12T09:37:05.367Z,100249.34
2023-09-12T09:39:37.829Z,100254.42
2023-09-12T09:42:13.224Z,100258.20
2023-09-12T09:44:49.607Z,100248.45
2023-09-12T09:47:22.767Z,100253.66
2023-09-12T09:49:55.519Z,100249.76
2023-09-12T09:52:31.549Z,100248.39
2023-09-12T09:55:06.869Z,100242.64
2023-09-12T09:57:43.761Z,100256.71
2023-09-12T10:00:19.866Z,100250.39
2023-09-12T10:02:54.033Z,100248.58
2023-09-12T10:05:28.965Z,100250.01
2023-09-12T10:08:04.266Z,100244.51
2023-09-12T10:10:38.161Z,100251.56
2023-09-12T10:13:12.583Z,100248.22
2023-09-12T10:15:47.351Z,100235.73
2023-09-12T10:21:10.726Z,100238.77
2023-09-12T10:23:51.174Z,100241.86
2023-09-12T10:26:24.947Z,100239.89
2023-09-12T10:28:57.565Z,100247.89
2023-09-12T10:31:31.534Z,100245.40
2023-09-12T10:34:05.778Z,100241.35
2023-09-12T10:36:41.976Z,100240.86
2023-09-12T10:39:17.652Z,100248.08
2023-09-12T10:41:54.265Z,100244.87
2023-09-12T10:44:27.947Z,100239.55
2023-09-12T10:47:01.239Z,100239.11
2023-09-12T10:49:34.015Z,100233.63
2023-09-12T10:52:08.475Z,100239.26
2023-09-12T10:54:42.664Z,100238.14
2023-09-12T10:57:16.029Z,100234.20
2023-09-12T11:00:08.021Z,100228.72
2023-09-12T11:02:45.969Z,100231.57
2023-09-12T11:05:34.928Z,100224.38
2023-09-12T11:08:08.072Z,100222.14
2023-09-12T11:10:42.085Z,100219.02
2023-09-12T11:13:21.229Z,100219.30
2023-09-12T11:16:13.864Z,100220.29
2023-09-12T11:19:24.561Z,100223.41
2023-09-12T11:21:57.468Z,100215.53
2023-09-12T11:24:30.975Z,100216.94
2023-09-12T11:27:07.928Z,100210.87
2023-09-12T11:29:43.682Z,100215.08
2023-09-12T11:32:29.123Z,100216.48
2023-09-12T11:35:04.328Z,100211.00
2023-09-12T11:37:39.709Z,100210.55
2023-09-12T11:40:17.581Z,100210.56
2023-09-12T11:42:51.469Z,100216.80
2023-09-12T11:45:25.451Z,100213.94
2023-09-12T11:47:59.117Z,100209.98
2023-09-12T11:50:42.503Z,100211.36
2023-09-12T11:53:15.482Z,100200.03
2023-09-12T11:55:51.256Z,100209.16
2023-09-12T11:58:25.352Z,100212.63
2023-09-12T12:01:00.542Z,100211.45
2023-09-12T12:03:33.432Z,100201.83
2023-09-12T12:06:08.174Z,100200.22
2023-09-12T12:08:41.392Z,100202.61
2023-09-12T12:11:14.172Z,100206.62
2023-09-12T12:13:47.711Z,100203.64
2023-09-12T12:16:21.009Z,100200.08
2023-09-12T12:18:58.536Z,100193.59
2023-09-12T12:21:33.492Z,100189.53
2023-09-12T12:24:09.013Z,100192.23
2023-09-12T12:26:46.717Z,100190.03
2023-09-12T12:29:20.541Z,100192.02
2023-09-12T12:31:54.130Z,100191.61
2023-09-12T12:34:54.830Z,100192.33
2023-09-12T12:37:01.726Z,100177.02
2023-09-12T12:39:34.926Z,100188.92
2023-09-12T12:42:09.792Z,100178.08
2023-09-12T12:44:42.603Z,100180.27
2023-09-12T12:47:15.439Z,100174.09
2023-09-12T12:49:52.596Z,100171.70
2023-09-12T12:52:28.257Z,100170.77
2023-09-12T12:55:08.134Z,100165.24
2023-09-12T12:57:42.150Z,100173.41
2023-09-12T13:00:17.226Z,100161.08
2023-09-12T13:02:49.675Z,100169.08
2023-09-12T13:05:25.657Z,100161.48
2023-09-12T13:07:59.823Z,100164.56
2023-09-12T13:10:32.338Z,100160.59
2023-09-12T13:13:05.740Z,100169.90
2023-09-12T13:15:38.321Z,100160.96
2023-09-12T13:18:11.038Z,100161.39
2023-09-12T13:20:43.912Z,100155.69
2023-09-12T13:23:16.220Z,100158.02
2023-09-12T13:25:49.106Z,100159.69
2023-09-12T13:28:21.774Z,100164.35
2023-09-12T13:30:55.977Z,100160.91
2023-09-12T13:33:27.655Z,100152.12
2023-09-12T13:36:01.132Z,100167.16
2023-09-12T13:38:33.729Z,100167.35
2023-09-12T13:41:11.238Z,100172.06
2023-09-12T13:43:46.783Z,100172.50
2023-09-12T13:46:23.744Z,100173.92
2023-09-12T13:48:59.072Z,100161.41
2023-09-12T13:51:35.276Z,100160.05
2023-09-12T13:54:10.255Z,100173.56
2023-09-12T13:56:46.221Z,100164.81
2023-09-12T13:59:19.974Z,100172.89
2023-09-12T14:01:52.741Z,100176.35
2023-09-12T14:04:25.693Z,100168.07
2023-09-12T14:06:59.070Z,100181.38
2023-09-12T14:09:32.398Z,100185.09
2023-09-12T14:12:11.192Z,100186.07
2023-09-12T14:14:39.918Z,100175.95
2023-09-12T14:17:13.681Z,100179.00
2023-09-12T14:19:48.471Z,100178.02
2023-09-12T14:22:23.753Z,100169.52
2023-09-12T14:24:58.787Z,100169.05
2023-09-12T14:27:34.816Z,100179.69
2023-09-12T14:30:08.685Z,100185.84
2023-09-12T14:32:42.246Z,100179.09
2023-09-12T14:35:16.646Z,100177.98
2023-09-12T14:37:50.908Z,100183.70
2023-09-12T14:40:23.329Z,100186.08
2023-09-12T14:42:56.332Z,100192.36
2023-09-12T14:45:31.216Z,100189.98
2023-09-12T14:48:04.634Z,100188.39
2023-09-12T14:50:42.781Z,100188.48
2023-09-12T14:53:11.919Z,100192.28
2023-09-12T14:55:45.719Z,100191.23
2023-09-12T14:58:20.120Z,100194.22
2023-09-12T15:00:53.214Z,100196.09
2023-09-12T15:03:26.171Z,100195.92
2023-09-12T15:05:59.238Z,100188.48
2023-09-12T15:08:33.428Z,100185.83
2023-09-12T15:11:07.181Z,100197.89
2023-09-12T15:13:42.870Z,100200.38
2023-09-12T15:16:15.699Z,100207.03
2023-09-12T15:18:50.692Z,100211.34
2023-09-12T15:21:24.410Z,100216.33
2023-09-12T15:23:57.930Z,100210.50
2023-09-12T15:26:40.919Z,100211.97
2023-09-12T15:29:13.242Z,100217.20
2023-09-12T15:31:45.794Z,100210.63
2023-09-12T15:34:18.874Z,100212.52
2023-09-12T15:36:51.878Z,100215.23
2023-09-12T15:39:24.403Z,100219.20
2023-09-12T15:41:57.000Z,100214.61
2023-09-12T15:44:30.393Z,100218.16
2023-09-12T15:47:15.770Z,100222.66
2023-09-12T15:49:37.739Z,100225.45
2023-09-12T15:52:10.550Z,100223.66
2023-09-12T15:54:43.457Z,100239.80
2023-09-12T15:57:16.816Z,100246.56
2023-09-12T15:59:50.015Z,100247.30
2023-09-12T16:02:22.298Z,100245.61
2023-09-12T16:04:55.178Z,100248.52
2023-09-12T16:07:28.306Z,100244.83
2023-09-12T16:10:01.481Z,100247.47
2023-09-12T16:12:36.019Z,100251.70
2023-09-12T16:15:10.645Z,100252.52
2023-09-12T16:17:46.108Z,100252.48
2023-09-12T16:20:19.858Z,100254.05
2023-09-12T16:22:52.861Z,100253.41
2023-09-12T16:25:25.399Z,100255.57
2023-09-12T16:27:58.364Z,100256.43
2023-09-12T16:30:32.661Z,100248.57
2023-09-12T16:33:06.170Z,100254.22
2023-09-12T16:35:39.403Z,100256.27
2023-09-12T16:38:12.265Z,100251.17
2023-09-12T16:40:46.842Z,100248.62
2023-09-12T16:43:18.838Z,100253.25
2023-09-12T16:45:52.021Z,100246.34
2023-09-12T16:48:24.551Z,100250.40
2023-09-12T16:50:57.462Z,100248.93
2023-09-12T16:53:29.694Z,100247.14
2023-09-12T16:56:02.648Z,100242.45
2023-09-12T16:58:35.341Z,100255.11
2023-09-12T17:01:08.166Z,100250.52
2023-09-12T17:03:41.191Z,100252.35
2023-09-12T17:06:14.256Z,100257.11
2023-09-12T17:08:48.196Z,100250.98
2023-09-12T17:11:22.181Z,100257.44
2023-09-12T17:13:54.939Z,100261.61
2023-09-12T17:16:27.676Z,100264.72
2023-09-12T17:19:00.350Z,100262.50
2023-09-12T17:21:33.223Z,100262.71
2023-09-12T17:24:05.543Z,100257.66
2023-09-12T17:26:38.812Z,100256.69
2023-09-12T17:29:12.016Z,100256.90
2023-09-12T17:31:44.330Z,100257.36
2023-09-12T17:34:17.579Z,100262.88
2023-09-12T17:36:50.306Z,100261.50
2023-09-12T17:39:23.533Z,100268.95
2023-09-12T17:41:57.708Z,100269.52
2023-09-12T17:44:30.971Z,100265.48
2023-09-12T17:47:04.768Z,100267.73
2023-09-12T17:49:37.935Z,100275.89
2023-09-12T17:52:11.229Z,100274.62
2023-09-12T17:54:45.336Z,100271.14
2023-09-12T17:57:18.450Z,100261.80
2023-09-12T17:59:51.068Z,100261.80
2023-09-12T18:02:23.640Z,100262.62
2023-09-12T18:04:56.516Z,100258.30
2023-09-12T18:07:29.427Z,100262.73
2023-09-12T18:10:02.699Z,100264.66
2023-09-12T18:12:36.740Z,100263.80
2023-09-12T18:15:11.588Z,100261.48
2023-09-12T18:17:44.639Z,100260.73
2023-09-12T18:20:19.196Z,100267.41
2023-09-12T18:22:56.219Z,100270.27
2023-09-12T18:25:31.338Z,100281.06
2023-09-12T18:28:04.286Z,100268.02
2023-09-12T18:30:37.690Z,100272.59
2023-09-12T18:33:11.327Z,100272.89
2023-09-12T18:35:44.333Z,100270.78
2023-09-12T18:38:17.650Z,100273.10
2023-09-12T18:40:50.336Z,100270.98
2023-09-12T18:43:23.652Z,100271.08
2023-09-12T18:45:58.369Z,100277.11
2023-09-12T18:48:32.441Z,100280.52
2023-09-12T18:51:08.045Z,100279.46
2023-09-12T18:53:41.452Z,100276.05
2023-09-12T18:56:14.436Z,100283.89
2023-09-12T18:58:46.976Z,100289.20
2023-09-12T19:01:20.104Z,100290.45
2023-09-12T19:03:54.082Z,100293.23
2023-09-12T19:06:28.165Z,100294.16
2023-09-12T19:09:00.761Z,100289.09
2023-09-12T19:11:33.360Z,100289.92
2023-09-12T19:14:07.356Z,100288.53
2023-09-12T19:16:40.306Z,100284.48
2023-09-12T19:19:13.018Z,100302.48
2023-09-12T19:21:45.702Z,100297.70
2023-09-12T19:24:18.002Z,100304.89
2023-09-12T19:26:50.448Z,100301.60
2023-09-12T19:29:23.115Z,100302.75
2023-09-12T19:31:55.530Z,100304.77
2023-09-12T19:34:27.913Z,100300.20
2023-09-12T19:37:00.683Z,100299.66
2023-09-12T19:39:33.473Z,100303.08
2023-09-12T19:42:06.731Z,100296.83
2023-09-12T19:44:40.865Z,100297.20
2023-09-12T19:47:13.229Z,100302.50
2023-09-12T19:49:45.922Z,100307.06
2023-09-12T19:52:20.041Z,100300.45
2023-09-12T19:54:52.792Z,100301.61
2023-09-12T19:57:26.525Z,100295.92
2023-09-12T19:59:59.215Z,100299.71
2023-09-12T20:02:33.301Z,100298.12
2023-09-12T20:05:06.259Z,100298.21
2023-09-12T20:07:38.694Z,100314.18
2023-09-12T20:10:11.655Z,100307.97
2023-09-12T20:12:43.973Z,100309.94
2023-09-12T20:15:16.858Z,100307.70
2023-09-12T20:17:53.170Z,100313.17
2023-09-12T20:20:25.806Z,100311.48
2023-09-12T20:22:58.293Z,100313.67
2023-09-12T20:25:32.336Z,100311.20
2023-09-12T20:28:04.740Z,100322.73
2023-09-12T20:30:37.688Z,100313.94
2023-09-12T20:33:10.158Z,100318.49
2023-09-12T20:35:42.689Z,100314.34
2023-09-12T20:38:14.948Z,100317.91
2023-09-12T20:40:47.317Z,100316.98
2023-09-12T20:43:19.550Z,100316.03
2023-09-12T20:45:54.469Z,100322.92
2023-09-12T20:48:26.965Z,100317.36
2023-09-12T20:50:59.200Z,100323.30
2023-09-12T20:53:31.354Z,100318.73
2023-09-12T20:56:04.006Z,100327.35
2023-09-12T20:58:37.783Z,100322.06
2023-09-12T21:01:10.967Z,100323.94
2023-09-12T21:03:44.713Z,100326.58
2023-09-12T21:06:17.848Z,100326.58
2023-09-12T21:08:52.204Z,100324.16
2023-09-12T21:11:24.504Z,100338.70
2023-09-12T21:13:56.921Z,100334.55
2023-09-12T21:16:29.359Z,100328.70
2023-09-12T21:19:01.710Z,100331.44
2023-09-12T21:21:34.820Z,100330.75
2023-09-12T21:24:07.303Z,100337.95
2023-09-12T21:26:39.523Z,100333.31
2023-09-12T21:29:12.473Z,100328.70
2023-09-12T21:31:44.714Z,100328.48
2023-09-12T21:34:17.071Z,100341.62
2023-09-12T21:36:49.907Z,100339.84
2023-09-12T21:39:22.423Z,100342.48
2023-09-12T21:41:56.124Z,100337.28
2023-09-12T21:44:28.742Z,100338.42
2023-09-12T21:47:01.265Z,100345.79
2023-09-12T21:49:33.930Z,100350.39
2023-09-12T21:52:06.831Z,100326.32
2023-09-12T21:54:40.684Z,100326.32
2023-09-12T21:57:14.576Z,100344.55
2023-09-12T21:59:47.017Z,100342.17
2023-09-12T22:02:19.936Z,100343.39
2023-09-12T22:04:52.469Z,100342.09
2023-09-12T22:07:24.826Z,100338.67
2023-09-12T22:09:57.209Z,100339.22
2023-09-12T22:12:29.560Z,100345.45
2023-09-12T22:15:01.825Z,100342.98
2023-09-12T22:17:35.806Z,100341.47
2023-09-12T22:20:10.459Z,100343.16
2023-09-12T22:22:44.036Z,100332.16
2023-09-12T22:25:16.954Z,100342.42
2023-09-12T22:27:49.320Z,100348.70
2023-09-12T22:30:21.715Z,100348.02
2023-09-12T22:32:54.488Z,100351.69
2023-09-12T22:35:27.056Z,100356.40
2023-09-12T22:37:59.487Z,100358.38
2023-09-12T22:40:31.870Z,100354.30
2023-09-12T22:43:04.453Z,100360.78
2023-09-12T22:45:37.211Z,100354.72
2023-09-12T22:48:09.587Z,100361.98
2023-09-12T22:50:43.794Z,100356.04
2023-09-12T22:53:16.562Z,100359.70
2023-09-12T22:55:48.798Z,100361.48
2023-09-12T22:58:21.415Z,100365.08
2023-09-12T23:00:54.082Z,100356.38
2023-09-12T23:03:26.607Z,100366.35
2023-09-12T23:06:00.256Z,100337.44
2023-09-12T23:08:32.601Z,100348.56
2023-09-12T23:11:05.001Z,100353.84
2023-09-12T23:13:37.356Z,100358.46
2023-09-12T23:16:09.727Z,100353.43
2023-09-12T23:18:42.260Z,100354.54
2023-09-12T23:21:14.679Z,100324.09
2023-09-12T23:23:47.036Z,100355.22
2023-09-12T23:26:20.106Z,100355.22
2023-09-12T23:28:52.638Z,100352.78
2023-09-12T23:31:25.278Z,100353.88
2023-09-12T23:33:57.627Z,100350.46
2023-09-12T23:36:30.059Z,100327.67
2023-09-12T23:39:03.780Z,100344.00
2023-09-12T23:41:36.614Z,100344.00
2023-09-12T23:44:08.994Z,100353.84
2023-09-12T23:46:41.323Z,100354.95
2023-09-12T23:49:13.862Z,100353.50
2023-09-12T23:51:46.179Z,100351.80
2023-09-12T23:54:18.714Z,100344.78
2023-09-12T23:56:50.981Z,100344.78
2023-09-12T23:59:23.943Z,100361.83
